Information Last Ob Photographs Meteogram Network Table Neighbors Monthly Summaries Observation History Wind Roses Custom Wind Roses Data Calendar Satellite Cloud Product Download Terminal Aerodome Forecast

Most Recent Observation

This application displays the last observation received by the IEM from this site. The time stamp is in America/Chicago timezone.

Observation Local Time15 Apr 2024, 3:53 AM
Observation UTC Time2024-04-15T08:53:00Z
Air Temp [F]69
Maximum Air Temperature [F]73
Minimum Air Temperature [F]69
Dew Point [F]64
Wind DirectionS (170 degrees)
Wind Speed [knots]12
Altimeter [inches]29.84
Raw Observation/ProductKDAL 150853Z 17012KT 10SM BKN017 OVC250 21/18 A2984 RMK AO2 SLP098 T02060178 58019
Cloud Layer 1: BKN (1700 feet)
Cloud Layer 2: OVC (25000 feet)

This data was provided by a JSON(P) webservice. You can find more JSON services.